sensor_id;sensor_type;location;lat;lon;timestamp;P1;P2;P0
55911;PMS5003;41823;45.534;-73.332;2022-10-16T00:01:19;438;385;
55911;PMS5003;41823;45.534;-73.332;2022-10-16T00:03:49;348;307;
55911;PMS5003;41823;45.534;-73.332;2022-10-16T00:06:18;186;166;
55911;PMS5003;41823;45.534;-73.332;2022-10-16T00:08:49;97;90;
55911;PMS5003;41823;45.534;-73.332;2022-10-16T00:11:19;51;48;
55911;PMS5003;41823;45.534;-73.332;2022-10-16T00:13:49;24;24;
55911;PMS5003;41823;45.534;-73.332;2022-10-16T00:16:21;16;16;
55911;PMS5003;41823;45.534;-73.332;2022-10-16T00:18:49;11;11;
55911;PMS5003;41823;45.534;-73.332;2022-10-16T00:21:18;9;8;
55911;PMS5003;41823;45.534;-73.332;2022-10-16T00:23:49;9;7;
55911;PMS5003;41823;45.534;-73.332;2022-10-16T00:26:18;5;5;
55911;PMS5003;41823;45.534;-73.332;2022-10-16T00:28:47;5;5;
55911;PMS5003;41823;45.534;-73.332;2022-10-16T00:31:17;7;6;
55911;PMS5003;41823;45.534;-73.332;2022-10-16T00:33:46;6;4;
55911;PMS5003;41823;45.534;-73.332;2022-10-16T00:36:16;5;5;
55911;PMS5003;41823;45.534;-73.332;2022-10-16T00:38:45;4;4;
55911;PMS5003;41823;45.534;-73.332;2022-10-16T00:41:15;5;4;
55911;PMS5003;41823;45.534;-73.332;2022-10-16T00:43:44;5;5;
55911;PMS5003;41823;45.534;-73.332;2022-10-16T00:46:16;5;5;
55911;PMS5003;41823;45.534;-73.332;2022-10-16T00:48:48;4;4;
55911;PMS5003;41823;45.534;-73.332;2022-10-16T00:51:19;4;4;
55911;PMS5003;41823;45.534;-73.332;2022-10-16T00:53:50;4;4;
55911;PMS5003;41823;45.534;-73.332;2022-10-16T00:56:19;4;4;
55911;PMS5003;41823;45.534;-73.332;2022-10-16T00:58:47;5;5;
55911;PMS5003;41823;45.534;-73.332;2022-10-16T01:01:15;5;5;
55911;PMS5003;41823;45.534;-73.332;2022-10-16T01:03:43;4;3;
55911;PMS5003;41823;45.534;-73.332;2022-10-16T01:06:16;4;4;
55911;PMS5003;41823;45.534;-73.332;2022-10-16T01:08:53;4;3;
55911;PMS5003;41823;45.534;-73.332;2022-10-16T01:11:31;5;5;
55911;PMS5003;41823;45.534;-73.332;2022-10-16T01:14:06;3;3;
55911;PMS5003;41823;45.534;-73.332;2022-10-16T01:16:43;5;4;
55911;PMS5003;41823;45.534;-73.332;2022-10-16T01:19:18;5;5;
55911;PMS5003;41823;45.534;-73.332;2022-10-16T01:21:53;3;3;
55911;PMS5003;41823;45.534;-73.332;2022-10-16T01:24:27;6;4;
55911;PMS5003;41823;45.534;-73.332;2022-10-16T01:27:10;5;5;
55911;PMS5003;41823;45.534;-73.332;2022-10-16T01:29:42;4;4;
55911;PMS5003;41823;45.534;-73.332;2022-10-16T01:32:20;3;3;
55911;PMS5003;41823;45.534;-73.332;2022-10-16T01:34:57;6;5;
55911;PMS5003;41823;45.534;-73.332;2022-10-16T01:37:32;5;5;
55911;PMS5003;41823;45.534;-73.332;2022-10-16T01:40:05;3;3;
55911;PMS5003;41823;45.534;-73.332;2022-10-16T01:42:37;3;3;
55911;PMS5003;41823;45.534;-73.332;2022-10-16T01:45:09;4;3;
55911;PMS5003;41823;45.534;-73.332;2022-10-16T01:47:41;3;3;
55911;PMS5003;41823;45.534;-73.332;2022-10-16T01:50:10;5;5;
55911;PMS5003;41823;45.534;-73.332;2022-10-16T01:52:41;6;6;
55911;PMS5003;41823;45.534;-73.332;2022-10-16T01:55:27;5;4;
55911;PMS5003;41823;45.534;-73.332;2022-10-16T01:57:59;262;242;
55911;PMS5003;41823;45.534;-73.332;2022-10-16T02:00:32;359;325;
55911;PMS5003;41823;45.534;-73.332;2022-10-16T02:03:01;391;344;
55911;PMS5003;41823;45.534;-73.332;2022-10-16T02:05:32;467;422;
55911;PMS5003;41823;45.534;-73.332;2022-10-16T02:08:05;257;234;
55911;PMS5003;41823;45.534;-73.332;2022-10-16T02:10:34;139;127;
55911;PMS5003;41823;45.534;-73.332;2022-10-16T02:13:06;75;73;
55911;PMS5003;41823;45.534;-73.332;2022-10-16T02:15:37;37;36;
55911;PMS5003;41823;45.534;-73.332;2022-10-16T02:18:05;20;19;
55911;PMS5003;41823;45.534;-73.332;2022-10-16T02:20:36;11;10;
55911;PMS5003;41823;45.534;-73.332;2022-10-16T02:23:12;8;8;
55911;PMS5003;41823;45.534;-73.332;2022-10-16T02:25:50;5;5;
55911;PMS5003;41823;45.534;-73.332;2022-10-16T02:28:22;6;6;
55911;PMS5003;41823;45.534;-73.332;2022-10-16T02:30:56;4;4;
55911;PMS5003;41823;45.534;-73.332;2022-10-16T02:33:26;5;5;
55911;PMS5003;41823;45.534;-73.332;2022-10-16T02:35:56;4;3;
55911;PMS5003;41823;45.534;-73.332;2022-10-16T02:38:25;3;3;
55911;PMS5003;41823;45.534;-73.332;2022-10-16T02:40:54;3;2;
55911;PMS5003;41823;45.534;-73.332;2022-10-16T02:43:22;2;2;
55911;PMS5003;41823;45.534;-73.332;2022-10-16T02:45:52;174;163;
55911;PMS5003;41823;45.534;-73.332;2022-10-16T02:48:20;255;228;
55911;PMS5003;41823;45.534;-73.332;2022-10-16T02:50:48;235;216;
55911;PMS5003;41823;45.534;-73.332;2022-10-16T02:53:16;262;242;
55911;PMS5003;41823;45.534;-73.332;2022-10-16T02:55:44;186;175;
55911;PMS5003;41823;45.534;-73.332;2022-10-16T02:58:13;105;96;
55911;PMS5003;41823;45.534;-73.332;2022-10-16T03:00:41;48;46;
55911;PMS5003;41823;45.534;-73.332;2022-10-16T03:03:09;28;27;
55911;PMS5003;41823;45.534;-73.332;2022-10-16T03:05:37;18;17;
55911;PMS5003;41823;45.534;-73.332;2022-10-16T03:08:04;8;8;
55911;PMS5003;41823;45.534;-73.332;2022-10-16T03:10:32;7;7;
55911;PMS5003;41823;45.534;-73.332;2022-10-16T03:13:00;4;4;
55911;PMS5003;41823;45.534;-73.332;2022-10-16T03:15:28;4;4;
55911;PMS5003;41823;45.534;-73.332;2022-10-16T03:17:57;4;4;
55911;PMS5003;41823;45.534;-73.332;2022-10-16T03:20:25;3;3;
55911;PMS5003;41823;45.534;-73.332;2022-10-16T03:22:53;3;3;
55911;PMS5003;41823;45.534;-73.332;2022-10-16T03:25:21;3;3;
55911;PMS5003;41823;45.534;-73.332;2022-10-16T03:27:49;2;2;
55911;PMS5003;41823;45.534;-73.332;2022-10-16T03:30:16;3;2;
55911;PMS5003;41823;45.534;-73.332;2022-10-16T03:32:44;2;2;
55911;PMS5003;41823;45.534;-73.332;2022-10-16T03:35:12;2;2;
55911;PMS5003;41823;45.534;-73.332;2022-10-16T03:37:40;3;3;
55911;PMS5003;41823;45.534;-73.332;2022-10-16T03:40:08;3;3;
55911;PMS5003;41823;45.534;-73.332;2022-10-16T03:42:36;3;3;
55911;PMS5003;41823;45.534;-73.332;2022-10-16T03:45:05;2;2;
55911;PMS5003;41823;45.534;-73.332;2022-10-16T03:47:33;3;3;
55911;PMS5003;41823;45.534;-73.332;2022-10-16T03:50:01;3;3;
55911;PMS5003;41823;45.534;-73.332;2022-10-16T03:52:30;4;4;
55911;PMS5003;41823;45.534;-73.332;2022-10-16T03:54:58;2;2;
55911;PMS5003;41823;45.534;-73.332;2022-10-16T03:57:26;2;2;
55911;PMS5003;41823;45.534;-73.332;2022-10-16T03:59:53;2;2;
55911;PMS5003;41823;45.534;-73.332;2022-10-16T04:02:21;2;2;
55911;PMS5003;41823;45.534;-73.332;2022-10-16T04:04:49;3;3;
55911;PMS5003;41823;45.534;-73.332;2022-10-16T04:07:17;3;3;
55911;PMS5003;41823;45.534;-73.332;2022-10-16T04:09:45;1;1;
55911;PMS5003;41823;45.534;-73.332;2022-10-16T04:12:13;3;3;
55911;PMS5003;41823;45.534;-73.332;2022-10-16T04:14:41;3;2;
55911;PMS5003;41823;45.534;-73.332;2022-10-16T04:17:09;2;2;
55911;PMS5003;41823;45.534;-73.332;2022-10-16T04:19:37;3;2;
55911;PMS5003;41823;45.534;-73.332;2022-10-16T04:22:05;3;2;
55911;PMS5003;41823;45.534;-73.332;2022-10-16T04:24:33;3;3;
55911;PMS5003;41823;45.534;-73.332;2022-10-16T04:27:01;2;2;
55911;PMS5003;41823;45.534;-73.332;2022-10-16T04:29:29;2;2;
55911;PMS5003;41823;45.534;-73.332;2022-10-16T04:31:57;303;274;
55911;PMS5003;41823;45.534;-73.332;2022-10-16T04:34:25;363;326;
55911;PMS5003;41823;45.534;-73.332;2022-10-16T04:36:53;414;368;
55911;PMS5003;41823;45.534;-73.332;2022-10-16T04:39:21;290;258;
55911;PMS5003;41823;45.534;-73.332;2022-10-16T04:41:48;155;143;
55911;PMS5003;41823;45.534;-73.332;2022-10-16T04:44:16;82;77;
55911;PMS5003;41823;45.534;-73.332;2022-10-16T04:46:44;41;39;
55911;PMS5003;41823;45.534;-73.332;2022-10-16T04:49:12;23;23;
55911;PMS5003;41823;45.534;-73.332;2022-10-16T04:51:40;14;14;
55911;PMS5003;41823;45.534;-73.332;2022-10-16T04:54:08;8;7;
55911;PMS5003;41823;45.534;-73.332;2022-10-16T04:56:36;7;6;
55911;PMS5003;41823;45.534;-73.332;2022-10-16T04:59:04;4;4;
55911;PMS5003;41823;45.534;-73.332;2022-10-16T05:01:32;3;3;
55911;PMS5003;41823;45.534;-73.332;2022-10-16T05:04:00;4;4;
55911;PMS5003;41823;45.534;-73.332;2022-10-16T05:06:28;3;3;
55911;PMS5003;41823;45.534;-73.332;2022-10-16T05:08:56;4;4;
55911;PMS5003;41823;45.534;-73.332;2022-10-16T05:11:24;3;3;
55911;PMS5003;41823;45.534;-73.332;2022-10-16T05:13:52;4;4;
55911;PMS5003;41823;45.534;-73.332;2022-10-16T05:16:20;3;3;
55911;PMS5003;41823;45.534;-73.332;2022-10-16T05:18:47;2;2;
55911;PMS5003;41823;45.534;-73.332;2022-10-16T05:21:15;4;4;
55911;PMS5003;41823;45.534;-73.332;2022-10-16T05:23:43;1;1;
55911;PMS5003;41823;45.534;-73.332;2022-10-16T05:26:11;3;3;
55911;PMS5003;41823;45.534;-73.332;2022-10-16T05:28:39;4;3;
55911;PMS5003;41823;45.534;-73.332;2022-10-16T05:31:08;44;44;
55911;PMS5003;41823;45.534;-73.332;2022-10-16T05:33:36;316;279;
55911;PMS5003;41823;45.534;-73.332;2022-10-16T05:36:06;415;364;
55911;PMS5003;41823;45.534;-73.332;2022-10-16T05:38:36;407;359;
55911;PMS5003;41823;45.534;-73.332;2022-10-16T05:41:05;214;197;
55911;PMS5003;41823;45.534;-73.332;2022-10-16T05:43:33;117;107;
55911;PMS5003;41823;45.534;-73.332;2022-10-16T05:46:02;56;54;
55911;PMS5003;41823;45.534;-73.332;2022-10-16T05:48:32;32;31;
55911;PMS5003;41823;45.534;-73.332;2022-10-16T05:51:00;13;13;
55911;PMS5003;41823;45.534;-73.332;2022-10-16T05:53:30;8;8;
55911;PMS5003;41823;45.534;-73.332;2022-10-16T05:55:59;6;6;
55911;PMS5003;41823;45.534;-73.332;2022-10-16T05:58:28;4;4;
55911;PMS5003;41823;45.534;-73.332;2022-10-16T06:00:59;4;4;
55911;PMS5003;41823;45.534;-73.332;2022-10-16T06:03:28;3;2;
55911;PMS5003;41823;45.534;-73.332;2022-10-16T06:05:56;3;3;
55911;PMS5003;41823;45.534;-73.332;2022-10-16T06:08:24;2;2;
55911;PMS5003;41823;45.534;-73.332;2022-10-16T06:11:00;3;3;
55911;PMS5003;41823;45.534;-73.332;2022-10-16T06:13:29;2;2;
55911;PMS5003;41823;45.534;-73.332;2022-10-16T06:15:57;4;3;
55911;PMS5003;41823;45.534;-73.332;2022-10-16T06:18:27;3;2;
55911;PMS5003;41823;45.534;-73.332;2022-10-16T06:20:56;2;2;
55911;PMS5003;41823;45.534;-73.332;2022-10-16T06:23:25;2;2;
55911;PMS5003;41823;45.534;-73.332;2022-10-16T06:26:03;3;3;
55911;PMS5003;41823;45.534;-73.332;2022-10-16T06:28:31;3;3;
55911;PMS5003;41823;45.534;-73.332;2022-10-16T06:30:59;3;3;
55911;PMS5003;41823;45.534;-73.332;2022-10-16T06:33:27;4;3;
55911;PMS5003;41823;45.534;-73.332;2022-10-16T06:36:00;2;2;
55911;PMS5003;41823;45.534;-73.332;2022-10-16T06:38:28;3;3;
55911;PMS5003;41823;45.534;-73.332;2022-10-16T06:40:57;2;2;
55911;PMS5003;41823;45.534;-73.332;2022-10-16T06:43:25;4;3;
55911;PMS5003;41823;45.534;-73.332;2022-10-16T06:45:56;2;2;
55911;PMS5003;41823;45.534;-73.332;2022-10-16T06:48:24;2;2;
55911;PMS5003;41823;45.534;-73.332;2022-10-16T06:50:56;3;3;
55911;PMS5003;41823;45.534;-73.332;2022-10-16T06:53:25;2;2;
55911;PMS5003;41823;45.534;-73.332;2022-10-16T06:55:54;2;2;
55911;PMS5003;41823;45.534;-73.332;2022-10-16T06:58:22;3;2;
55911;PMS5003;41823;45.534;-73.332;2022-10-16T07:00:54;2;2;
55911;PMS5003;41823;45.534;-73.332;2022-10-16T07:03:22;2;2;
55911;PMS5003;41823;45.534;-73.332;2022-10-16T07:05:50;1;1;
55911;PMS5003;41823;45.534;-73.332;2022-10-16T07:08:18;2;2;
55911;PMS5003;41823;45.534;-73.332;2022-10-16T07:10:46;2;2;
55911;PMS5003;41823;45.534;-73.332;2022-10-16T07:13:14;2;2;
55911;PMS5003;41823;45.534;-73.332;2022-10-16T07:15:42;4;4;
55911;PMS5003;41823;45.534;-73.332;2022-10-16T07:18:10;2;2;
55911;PMS5003;41823;45.534;-73.332;2022-10-16T07:20:38;2;2;
55911;PMS5003;41823;45.534;-73.332;2022-10-16T07:23:06;2;2;
55911;PMS5003;41823;45.534;-73.332;2022-10-16T07:25:35;1;1;
55911;PMS5003;41823;45.534;-73.332;2022-10-16T07:28:03;3;3;
55911;PMS5003;41823;45.534;-73.332;2022-10-16T07:30:30;2;2;
55911;PMS5003;41823;45.534;-73.332;2022-10-16T07:33:02;4;3;
55911;PMS5003;41823;45.534;-73.332;2022-10-16T07:35:30;2;2;
55911;PMS5003;41823;45.534;-73.332;2022-10-16T07:37:58;2;2;
55911;PMS5003;41823;45.534;-73.332;2022-10-16T07:40:26;3;3;
55911;PMS5003;41823;45.534;-73.332;2022-10-16T07:42:53;3;3;
55911;PMS5003;41823;45.534;-73.332;2022-10-16T07:45:22;2;2;
55911;PMS5003;41823;45.534;-73.332;2022-10-16T07:47:49;4;4;
55911;PMS5003;41823;45.534;-73.332;2022-10-16T07:50:17;2;2;
55911;PMS5003;41823;45.534;-73.332;2022-10-16T07:52:45;2;2;
55911;PMS5003;41823;45.534;-73.332;2022-10-16T07:55:13;2;2;
55911;PMS5003;41823;45.534;-73.332;2022-10-16T07:57:41;3;3;
55911;PMS5003;41823;45.534;-73.332;2022-10-16T08:00:09;3;3;
55911;PMS5003;41823;45.534;-73.332;2022-10-16T08:02:38;2;2;
55911;PMS5003;41823;45.534;-73.332;2022-10-16T08:05:06;3;3;
55911;PMS5003;41823;45.534;-73.332;2022-10-16T08:07:35;3;2;
55911;PMS5003;41823;45.534;-73.332;2022-10-16T08:10:03;5;3;
55911;PMS5003;41823;45.534;-73.332;2022-10-16T08:12:31;4;4;
55911;PMS5003;41823;45.534;-73.332;2022-10-16T08:14:59;1;1;
55911;PMS5003;41823;45.534;-73.332;2022-10-16T08:17:27;3;3;
55911;PMS5003;41823;45.534;-73.332;2022-10-16T08:19:55;3;3;
55911;PMS5003;41823;45.534;-73.332;2022-10-16T08:22:23;3;2;
55911;PMS5003;41823;45.534;-73.332;2022-10-16T08:24:52;2;2;
55911;PMS5003;41823;45.534;-73.332;2022-10-16T08:27:21;3;3;
55911;PMS5003;41823;45.534;-73.332;2022-10-16T08:29:49;3;2;
55911;PMS5003;41823;45.534;-73.332;2022-10-16T08:32:17;3;3;
55911;PMS5003;41823;45.534;-73.332;2022-10-16T08:34:45;3;3;
55911;PMS5003;41823;45.534;-73.332;2022-10-16T08:37:13;3;3;
55911;PMS5003;41823;45.534;-73.332;2022-10-16T08:39:41;4;4;
55911;PMS5003;41823;45.534;-73.332;2022-10-16T08:42:12;2;2;
55911;PMS5003;41823;45.534;-73.332;2022-10-16T08:45:39;3;2;
55911;PMS5003;41823;45.534;-73.332;2022-10-16T08:48:20;4;4;
55911;PMS5003;41823;45.534;-73.332;2022-10-16T08:50:54;3;3;
55911;PMS5003;41823;45.534;-73.332;2022-10-16T08:53:24;2;2;
55911;PMS5003;41823;45.534;-73.332;2022-10-16T08:55:57;3;3;
55911;PMS5003;41823;45.534;-73.332;2022-10-16T08:58:27;3;3;
55911;PMS5003;41823;45.534;-73.332;2022-10-16T09:00:57;2;2;
55911;PMS5003;41823;45.534;-73.332;2022-10-16T09:03:32;4;4;
55911;PMS5003;41823;45.534;-73.332;2022-10-16T09:06:17;1;1;
55911;PMS5003;41823;45.534;-73.332;2022-10-16T09:08:57;3;3;
55911;PMS5003;41823;45.534;-73.332;2022-10-16T09:11:41;3;3;
55911;PMS5003;41823;45.534;-73.332;2022-10-16T09:14:22;2;2;
55911;PMS5003;41823;45.534;-73.332;2022-10-16T09:17:18;2;2;
55911;PMS5003;41823;45.534;-73.332;2022-10-16T09:20:00;4;4;
55911;PMS5003;41823;45.534;-73.332;2022-10-16T09:22:42;3;2;
55911;PMS5003;41823;45.534;-73.332;2022-10-16T09:25:11;4;4;
55911;PMS5003;41823;45.534;-73.332;2022-10-16T09:27:40;3;3;
55911;PMS5003;41823;45.534;-73.332;2022-10-16T09:30:13;4;4;
55911;PMS5003;41823;45.534;-73.332;2022-10-16T09:32:43;4;4;
55911;PMS5003;41823;45.534;-73.332;2022-10-16T09:35:14;4;3;
55911;PMS5003;41823;45.534;-73.332;2022-10-16T09:37:45;2;2;
55911;PMS5003;41823;45.534;-73.332;2022-10-16T09:40:24;3;3;
55911;PMS5003;41823;45.534;-73.332;2022-10-16T09:42:55;5;4;
55911;PMS5003;41823;45.534;-73.332;2022-10-16T09:45:29;3;3;
55911;PMS5003;41823;45.534;-73.332;2022-10-16T09:47:56;3;3;
55911;PMS5003;41823;45.534;-73.332;2022-10-16T09:50:25;3;3;
55911;PMS5003;41823;45.534;-73.332;2022-10-16T09:53:11;3;3;
55911;PMS5003;41823;45.534;-73.332;2022-10-16T09:55:48;3;2;
55911;PMS5003;41823;45.534;-73.332;2022-10-16T09:58:16;3;3;
55911;PMS5003;41823;45.534;-73.332;2022-10-16T10:00:49;3;3;
55911;PMS5003;41823;45.534;-73.332;2022-10-16T10:03:26;2;2;
55911;PMS5003;41823;45.534;-73.332;2022-10-16T10:06:03;3;2;
55911;PMS5003;41823;45.534;-73.332;2022-10-16T10:09:17;3;3;
55911;PMS5003;41823;45.534;-73.332;2022-10-16T10:11:48;4;3;
55911;PMS5003;41823;45.534;-73.332;2022-10-16T10:14:20;3;3;
55911;PMS5003;41823;45.534;-73.332;2022-10-16T10:16:51;3;3;
55911;PMS5003;41823;45.534;-73.332;2022-10-16T10:19:27;3;3;
55911;PMS5003;41823;45.534;-73.332;2022-10-16T10:21:55;3;3;
55911;PMS5003;41823;45.534;-73.332;2022-10-16T10:24:23;4;3;
55911;PMS5003;41823;45.534;-73.332;2022-10-16T10:26:54;2;2;
55911;PMS5003;41823;45.534;-73.332;2022-10-16T10:29:34;3;3;
55911;PMS5003;41823;45.534;-73.332;2022-10-16T10:32:17;3;3;
55911;PMS5003;41823;45.534;-73.332;2022-10-16T10:34:57;4;3;
55911;PMS5003;41823;45.534;-73.332;2022-10-16T10:37:44;2;2;
55911;PMS5003;41823;45.534;-73.332;2022-10-16T10:40:28;3;2;
55911;PMS5003;41823;45.534;-73.332;2022-10-16T10:43:05;2;2;
55911;PMS5003;41823;45.534;-73.332;2022-10-16T10:45:41;3;3;
55911;PMS5003;41823;45.534;-73.332;2022-10-16T10:48:17;4;3;
55911;PMS5003;41823;45.534;-73.332;2022-10-16T10:50:55;3;3;
55911;PMS5003;41823;45.534;-73.332;2022-10-16T10:53:31;3;3;
55911;PMS5003;41823;45.534;-73.332;2022-10-16T10:56:15;3;3;
55911;PMS5003;41823;45.534;-73.332;2022-10-16T10:59:00;2;2;
55911;PMS5003;41823;45.534;-73.332;2022-10-16T11:01:38;2;2;
55911;PMS5003;41823;45.534;-73.332;2022-10-16T11:04:20;2;2;
55911;PMS5003;41823;45.534;-73.332;2022-10-16T11:06:41;2;2;
55911;PMS5003;41823;45.534;-73.332;2022-10-16T11:09:15;2;2;
55911;PMS5003;41823;45.534;-73.332;2022-10-16T11:11:47;4;3;
55911;PMS5003;41823;45.534;-73.332;2022-10-16T11:14:23;2;2;
55911;PMS5003;41823;45.534;-73.332;2022-10-16T11:16:58;3;2;
55911;PMS5003;41823;45.534;-73.332;2022-10-16T11:19:35;2;2;
55911;PMS5003;41823;45.534;-73.332;2022-10-16T11:22:11;3;3;
55911;PMS5003;41823;45.534;-73.332;2022-10-16T11:24:45;4;4;
55911;PMS5003;41823;45.534;-73.332;2022-10-16T11:27:19;3;3;
55911;PMS5003;41823;45.534;-73.332;2022-10-16T11:30:05;3;3;
55911;PMS5003;41823;45.534;-73.332;2022-10-16T11:32:50;3;3;
55911;PMS5003;41823;45.534;-73.332;2022-10-16T11:35:24;3;3;
55911;PMS5003;41823;45.534;-73.332;2022-10-16T11:37:58;2;2;
55911;PMS5003;41823;45.534;-73.332;2022-10-16T11:40:31;3;3;
55911;PMS5003;41823;45.534;-73.332;2022-10-16T11:43:04;3;3;
55911;PMS5003;41823;45.534;-73.332;2022-10-16T11:45:39;1;1;
55911;PMS5003;41823;45.534;-73.332;2022-10-16T11:48:14;3;3;
55911;PMS5003;41823;45.534;-73.332;2022-10-16T11:50:53;2;2;
55911;PMS5003;41823;45.534;-73.332;2022-10-16T11:53:24;3;3;
55911;PMS5003;41823;45.534;-73.332;2022-10-16T11:56:04;4;2;
55911;PMS5003;41823;45.534;-73.332;2022-10-16T11:58:35;3;3;
55911;PMS5003;41823;45.534;-73.332;2022-10-16T12:01:13;3;3;
55911;PMS5003;41823;45.534;-73.332;2022-10-16T12:03:52;3;3;
55911;PMS5003;41823;45.534;-73.332;2022-10-16T12:06:30;3;3;
55911;PMS5003;41823;45.534;-73.332;2022-10-16T12:09:04;2;2;
55911;PMS5003;41823;45.534;-73.332;2022-10-16T12:11:33;3;3;
55911;PMS5003;41823;45.534;-73.332;2022-10-16T12:14:04;4;4;
55911;PMS5003;41823;45.534;-73.332;2022-10-16T12:16:51;4;3;
55911;PMS5003;41823;45.534;-73.332;2022-10-16T12:19:20;3;2;
55911;PMS5003;41823;45.534;-73.332;2022-10-16T12:21:49;3;3;
55911;PMS5003;41823;45.534;-73.332;2022-10-16T12:24:29;3;3;
55911;PMS5003;41823;45.534;-73.332;2022-10-16T12:27:02;1;1;
55911;PMS5003;41823;45.534;-73.332;2022-10-16T12:29:35;2;2;
55911;PMS5003;41823;45.534;-73.332;2022-10-16T12:32:05;2;2;
55911;PMS5003;41823;45.534;-73.332;2022-10-16T12:34:50;2;2;
55911;PMS5003;41823;45.534;-73.332;2022-10-16T12:37:20;3;3;
55911;PMS5003;41823;45.534;-73.332;2022-10-16T12:39:51;3;2;
55911;PMS5003;41823;45.534;-73.332;2022-10-16T12:42:22;3;2;
55911;PMS5003;41823;45.534;-73.332;2022-10-16T12:44:59;3;3;
55911;PMS5003;41823;45.534;-73.332;2022-10-16T12:47:36;3;3;
55911;PMS5003;41823;45.534;-73.332;2022-10-16T12:50:30;0;0;
55911;PMS5003;41823;45.534;-73.332;2022-10-16T12:53:01;4;4;
55911;PMS5003;41823;45.534;-73.332;2022-10-16T12:55:46;3;3;
55911;PMS5003;41823;45.534;-73.332;2022-10-16T12:58:30;4;3;
55911;PMS5003;41823;45.534;-73.332;2022-10-16T13:01:10;3;3;
55911;PMS5003;41823;45.534;-73.332;2022-10-16T13:03:59;2;2;
55911;PMS5003;41823;45.534;-73.332;2022-10-16T13:06:42;3;3;
55911;PMS5003;41823;45.534;-73.332;2022-10-16T13:09:30;3;3;
55911;PMS5003;41823;45.534;-73.332;2022-10-16T13:12:10;3;3;
55911;PMS5003;41823;45.534;-73.332;2022-10-16T13:14:53;2;2;
55911;PMS5003;41823;45.534;-73.332;2022-10-16T13:17:36;2;2;
55911;PMS5003;41823;45.534;-73.332;2022-10-16T13:20:12;3;3;
55911;PMS5003;41823;45.534;-73.332;2022-10-16T13:22:51;5;4;
55911;PMS5003;41823;45.534;-73.332;2022-10-16T13:25:28;2;2;
55911;PMS5003;41823;45.534;-73.332;2022-10-16T13:28:07;3;3;
55911;PMS5003;41823;45.534;-73.332;2022-10-16T13:30:38;3;3;
55911;PMS5003;41823;45.534;-73.332;2022-10-16T13:33:13;3;3;
55911;PMS5003;41823;45.534;-73.332;2022-10-16T13:35:48;3;3;
55911;PMS5003;41823;45.534;-73.332;2022-10-16T13:38:17;3;3;
55911;PMS5003;41823;45.534;-73.332;2022-10-16T13:40:50;3;3;
55911;PMS5003;41823;45.534;-73.332;2022-10-16T13:43:20;2;2;
55911;PMS5003;41823;45.534;-73.332;2022-10-16T13:45:53;4;4;
55911;PMS5003;41823;45.534;-73.332;2022-10-16T13:48:24;3;3;
55911;PMS5003;41823;45.534;-73.332;2022-10-16T13:51:00;3;3;
55911;PMS5003;41823;45.534;-73.332;2022-10-16T13:53:31;5;3;
55911;PMS5003;41823;45.534;-73.332;2022-10-16T13:56:00;2;2;
55911;PMS5003;41823;45.534;-73.332;2022-10-16T13:58:30;3;3;
55911;PMS5003;41823;45.534;-73.332;2022-10-16T14:01:00;3;3;
55911;PMS5003;41823;45.534;-73.332;2022-10-16T14:03:30;3;2;
55911;PMS5003;41823;45.534;-73.332;2022-10-16T14:06:00;3;3;
55911;PMS5003;41823;45.534;-73.332;2022-10-16T14:08:30;3;3;
55911;PMS5003;41823;45.534;-73.332;2022-10-16T14:10:58;3;3;
55911;PMS5003;41823;45.534;-73.332;2022-10-16T14:13:31;4;4;
55911;PMS5003;41823;45.534;-73.332;2022-10-16T14:16:05;4;3;
55911;PMS5003;41823;45.534;-73.332;2022-10-16T14:18:36;2;2;
55911;PMS5003;41823;45.534;-73.332;2022-10-16T14:21:12;4;4;
55911;PMS5003;41823;45.534;-73.332;2022-10-16T14:23:42;3;2;
55911;PMS5003;41823;45.534;-73.332;2022-10-16T14:26:15;3;3;
55911;PMS5003;41823;45.534;-73.332;2022-10-16T14:28:47;3;3;
55911;PMS5003;41823;45.534;-73.332;2022-10-16T14:31:29;4;4;
55911;PMS5003;41823;45.534;-73.332;2022-10-16T14:33:59;3;2;
55911;PMS5003;41823;45.534;-73.332;2022-10-16T14:36:28;3;2;
55911;PMS5003;41823;45.534;-73.332;2022-10-16T14:38:59;4;4;
55911;PMS5003;41823;45.534;-73.332;2022-10-16T14:41:29;3;2;
55911;PMS5003;41823;45.534;-73.332;2022-10-16T14:44:01;3;3;
55911;PMS5003;41823;45.534;-73.332;2022-10-16T14:46:32;2;2;
55911;PMS5003;41823;45.534;-73.332;2022-10-16T14:49:04;3;3;
55911;PMS5003;41823;45.534;-73.332;2022-10-16T14:51:44;5;4;
55911;PMS5003;41823;45.534;-73.332;2022-10-16T14:54:17;3;3;
55911;PMS5003;41823;45.534;-73.332;2022-10-16T14:56:47;2;2;
55911;PMS5003;41823;45.534;-73.332;2022-10-16T14:59:18;4;3;
55911;PMS5003;41823;45.534;-73.332;2022-10-16T15:01:51;2;2;
55911;PMS5003;41823;45.534;-73.332;2022-10-16T15:04:19;4;4;
55911;PMS5003;41823;45.534;-73.332;2022-10-16T15:06:47;3;3;
55911;PMS5003;41823;45.534;-73.332;2022-10-16T15:09:16;3;3;
55911;PMS5003;41823;45.534;-73.332;2022-10-16T15:11:44;1;1;
55911;PMS5003;41823;45.534;-73.332;2022-10-16T15:14:12;3;3;
55911;PMS5003;41823;45.534;-73.332;2022-10-16T15:16:40;3;3;
55911;PMS5003;41823;45.534;-73.332;2022-10-16T15:19:07;4;4;
55911;PMS5003;41823;45.534;-73.332;2022-10-16T15:21:35;4;4;
55911;PMS5003;41823;45.534;-73.332;2022-10-16T15:24:05;4;3;
55911;PMS5003;41823;45.534;-73.332;2022-10-16T15:26:37;3;3;
55911;PMS5003;41823;45.534;-73.332;2022-10-16T15:29:05;3;3;
55911;PMS5003;41823;45.534;-73.332;2022-10-16T15:31:33;4;3;
55911;PMS5003;41823;45.534;-73.332;2022-10-16T15:34:01;4;3;
55911;PMS5003;41823;45.534;-73.332;2022-10-16T15:36:30;4;3;
55911;PMS5003;41823;45.534;-73.332;2022-10-16T15:38:59;3;3;
55911;PMS5003;41823;45.534;-73.332;2022-10-16T15:41:27;5;3;
55911;PMS5003;41823;45.534;-73.332;2022-10-16T15:43:54;3;3;
55911;PMS5003;41823;45.534;-73.332;2022-10-16T15:46:23;3;3;
55911;PMS5003;41823;45.534;-73.332;2022-10-16T15:48:51;3;3;
55911;PMS5003;41823;45.534;-73.332;2022-10-16T15:51:24;3;2;
55911;PMS5003;41823;45.534;-73.332;2022-10-16T15:53:52;3;3;
55911;PMS5003;41823;45.534;-73.332;2022-10-16T15:56:20;3;3;
55911;PMS5003;41823;45.534;-73.332;2022-10-16T15:58:48;2;2;
55911;PMS5003;41823;45.534;-73.332;2022-10-16T16:01:16;4;4;
55911;PMS5003;41823;45.534;-73.332;2022-10-16T16:03:44;3;3;
55911;PMS5003;41823;45.534;-73.332;2022-10-16T16:06:13;2;2;
55911;PMS5003;41823;45.534;-73.332;2022-10-16T16:08:41;4;3;
55911;PMS5003;41823;45.534;-73.332;2022-10-16T16:11:09;3;3;
55911;PMS5003;41823;45.534;-73.332;2022-10-16T16:13:39;4;4;
55911;PMS5003;41823;45.534;-73.332;2022-10-16T16:16:08;3;3;
55911;PMS5003;41823;45.534;-73.332;2022-10-16T16:18:37;3;3;
55911;PMS5003;41823;45.534;-73.332;2022-10-16T16:21:06;5;5;
55911;PMS5003;41823;45.534;-73.332;2022-10-16T16:23:34;2;2;
55911;PMS5003;41823;45.534;-73.332;2022-10-16T16:26:03;4;4;
55911;PMS5003;41823;45.534;-73.332;2022-10-16T16:28:33;3;3;
55911;PMS5003;41823;45.534;-73.332;2022-10-16T16:31:02;291;265;
55911;PMS5003;41823;45.534;-73.332;2022-10-16T16:33:30;446;394;
55911;PMS5003;41823;45.534;-73.332;2022-10-16T16:35:59;359;332;
55911;PMS5003;41823;45.534;-73.332;2022-10-16T16:38:27;412;364;
55911;PMS5003;41823;45.534;-73.332;2022-10-16T16:40:56;228;203;